sensor_id;sensor_type;location;lat;lon;timestamp;pressure;altitude;pressure_sealevel;temperature;humidity
64388;BME280;50709;52.648;4.764;2022-08-21T00:00:16;101639.78;;;21.33;58.36
64388;BME280;50709;52.648;4.764;2022-08-21T00:02:47;101681.22;;;21.68;58.36
64388;BME280;50709;52.648;4.764;2022-08-21T00:05:14;101684.66;;;21.72;57.98
64388;BME280;50709;52.648;4.764;2022-08-21T00:07:39;101681.97;;;21.74;58.85
64388;BME280;50709;52.648;4.764;2022-08-21T00:10:05;101675.22;;;21.62;58.54
64388;BME280;50709;52.648;4.764;2022-08-21T00:12:31;101666.66;;;21.52;58.46
64388;BME280;50709;52.648;4.764;2022-08-21T00:14:57;101657.19;;;21.42;58.71
64388;BME280;50709;52.648;4.764;2022-08-21T00:17:22;101631.22;;;21.23;58.59
64388;BME280;50709;52.648;4.764;2022-08-21T00:19:48;101675.09;;;21.66;58.91
64388;BME280;50709;52.648;4.764;2022-08-21T00:22:13;101667.31;;;21.60;58.90
64388;BME280;50709;52.648;4.764;2022-08-21T00:24:39;101671.50;;;21.69;59.23
64388;BME280;50709;52.648;4.764;2022-08-21T00:27:04;101628.50;;;21.25;59.23
64388;BME280;50709;52.648;4.764;2022-08-21T00:29:29;101665.84;;;21.48;59.74
64388;BME280;50709;52.648;4.764;2022-08-21T00:31:55;101674.63;;;21.52;59.68
64388;BME280;50709;52.648;4.764;2022-08-21T00:34:20;101675.13;;;21.35;59.75
64388;BME280;50709;52.648;4.764;2022-08-21T00:36:45;101644.28;;;20.99;60.42
64388;BME280;50709;52.648;4.764;2022-08-21T00:39:11;101629.19;;;21.02;60.62
64388;BME280;50709;52.648;4.764;2022-08-21T00:41:37;101658.09;;;21.42;60.28
64388;BME280;50709;52.648;4.764;2022-08-21T00:44:04;101665.31;;;21.37;59.62
64388;BME280;50709;52.648;4.764;2022-08-21T00:46:30;101656.16;;;21.17;60.69
64388;BME280;50709;52.648;4.764;2022-08-21T00:48:56;101657.31;;;21.09;60.70
64388;BME280;50709;52.648;4.764;2022-08-21T00:51:29;101683.34;;;21.27;60.37
64388;BME280;50709;52.648;4.764;2022-08-21T00:53:59;101671.28;;;21.15;60.60
64388;BME280;50709;52.648;4.764;2022-08-21T00:56:26;101660.50;;;21.22;60.78
64388;BME280;50709;52.648;4.764;2022-08-21T00:58:53;101664.84;;;21.23;60.48
64388;BME280;50709;52.648;4.764;2022-08-21T01:01:20;101665.06;;;21.16;60.71
64388;BME280;50709;52.648;4.764;2022-08-21T01:03:46;101673.34;;;21.06;61.00
64388;BME280;50709;52.648;4.764;2022-08-21T01:06:12;101668.78;;;21.11;61.52
64388;BME280;50709;52.648;4.764;2022-08-21T01:08:37;101655.97;;;20.94;61.49
64388;BME280;50709;52.648;4.764;2022-08-21T01:11:04;101640.53;;;20.75;61.24
64388;BME280;50709;52.648;4.764;2022-08-21T01:13:32;101675.19;;;21.02;61.70
64388;BME280;50709;52.648;4.764;2022-08-21T01:16:00;101665.69;;;20.95;62.16
64388;BME280;50709;52.648;4.764;2022-08-21T01:18:28;101614.22;;;20.66;61.84
64388;BME280;50709;52.648;4.764;2022-08-21T01:21:04;101663.13;;;20.90;62.28
64388;BME280;50709;52.648;4.764;2022-08-21T01:23:31;101658.53;;;20.97;61.98
64388;BME280;50709;52.648;4.764;2022-08-21T01:25:56;101649.84;;;20.90;62.23
64388;BME280;50709;52.648;4.764;2022-08-21T01:28:22;101664.22;;;20.83;62.74
64388;BME280;50709;52.648;4.764;2022-08-21T01:30:48;101673.69;;;20.92;62.54
64388;BME280;50709;52.648;4.764;2022-08-21T01:33:17;101641.25;;;20.82;62.28
64388;BME280;50709;52.648;4.764;2022-08-21T01:35:43;101648.56;;;20.74;62.98
64388;BME280;50709;52.648;4.764;2022-08-21T01:38:08;101660.28;;;20.65;63.55
64388;BME280;50709;52.648;4.764;2022-08-21T01:40:34;101665.16;;;20.46;63.53
64388;BME280;50709;52.648;4.764;2022-08-21T01:43:00;101602.16;;;20.21;63.51
64388;BME280;50709;52.648;4.764;2022-08-21T01:45:25;101644.84;;;20.46;63.44
64388;BME280;50709;52.648;4.764;2022-08-21T01:47:51;101648.81;;;20.63;63.71
64388;BME280;50709;52.648;4.764;2022-08-21T01:50:19;101646.50;;;20.50;63.80
64388;BME280;50709;52.648;4.764;2022-08-21T01:52:44;101653.28;;;20.61;63.94
64388;BME280;50709;52.648;4.764;2022-08-21T01:55:11;101661.09;;;20.67;63.82
64388;BME280;50709;52.648;4.764;2022-08-21T01:57:37;101638.16;;;20.64;64.07
64388;BME280;50709;52.648;4.764;2022-08-21T02:00:06;101612.19;;;20.43;63.79
64388;BME280;50709;52.648;4.764;2022-08-21T02:02:33;101634.94;;;20.53;63.62
64388;BME280;50709;52.648;4.764;2022-08-21T02:04:58;101631.44;;;20.51;64.44
64388;BME280;50709;52.648;4.764;2022-08-21T02:07:24;101614.22;;;20.33;64.57
64388;BME280;50709;52.648;4.764;2022-08-21T02:09:49;101636.94;;;20.43;64.42
64388;BME280;50709;52.648;4.764;2022-08-21T02:12:15;101632.38;;;20.48;64.63
64388;BME280;50709;52.648;4.764;2022-08-21T02:14:40;101632.47;;;20.45;64.28
64388;BME280;50709;52.648;4.764;2022-08-21T02:17:05;101600.13;;;20.31;64.50
64388;BME280;50709;52.648;4.764;2022-08-21T02:19:31;101621.63;;;20.55;64.25
64388;BME280;50709;52.648;4.764;2022-08-21T02:21:56;101568.00;;;20.09;64.67
64388;BME280;50709;52.648;4.764;2022-08-21T02:24:21;101630.72;;;20.44;64.79
64388;BME280;50709;52.648;4.764;2022-08-21T02:26:47;101626.66;;;20.31;65.00
64388;BME280;50709;52.648;4.764;2022-08-21T02:29:12;101614.00;;;20.42;65.08
64388;BME280;50709;52.648;4.764;2022-08-21T02:31:37;101631.63;;;20.45;64.22
64388;BME280;50709;52.648;4.764;2022-08-21T02:34:03;101605.09;;;20.45;64.53
64388;BME280;50709;52.648;4.764;2022-08-21T02:36:28;101627.53;;;19.97;63.85
64388;BME280;50709;52.648;4.764;2022-08-21T02:38:54;101629.53;;;19.87;66.36
64388;BME280;50709;52.648;4.764;2022-08-21T02:41:20;101616.69;;;20.06;65.71
64388;BME280;50709;52.648;4.764;2022-08-21T02:43:47;101589.31;;;20.04;65.41
64388;BME280;50709;52.648;4.764;2022-08-21T02:46:15;101623.59;;;20.12;65.87
64388;BME280;50709;52.648;4.764;2022-08-21T02:48:41;101621.53;;;19.89;66.80
64388;BME280;50709;52.648;4.764;2022-08-21T02:51:09;101631.75;;;19.66;67.51
64388;BME280;50709;52.648;4.764;2022-08-21T02:53:36;101611.22;;;18.96;68.88
64388;BME280;50709;52.648;4.764;2022-08-21T02:56:07;101626.88;;;19.48;69.07
64388;BME280;50709;52.648;4.764;2022-08-21T02:58:42;101625.19;;;19.03;69.09
64388;BME280;50709;52.648;4.764;2022-08-21T03:01:08;101610.81;;;19.56;68.87
64388;BME280;50709;52.648;4.764;2022-08-21T03:03:35;101603.69;;;19.58;68.19
64388;BME280;50709;52.648;4.764;2022-08-21T03:06:01;101605.78;;;19.82;68.01
64388;BME280;50709;52.648;4.764;2022-08-21T03:08:26;101582.63;;;19.91;67.25
64388;BME280;50709;52.648;4.764;2022-08-21T03:10:52;101558.59;;;19.59;67.49
64388;BME280;50709;52.648;4.764;2022-08-21T03:13:19;101565.31;;;19.74;67.28
64388;BME280;50709;52.648;4.764;2022-08-21T03:15:45;101567.66;;;19.50;67.85
64388;BME280;50709;52.648;4.764;2022-08-21T03:18:12;101593.16;;;19.55;68.41
64388;BME280;50709;52.648;4.764;2022-08-21T03:20:38;101566.31;;;19.31;69.05
64388;BME280;50709;52.648;4.764;2022-08-21T03:23:05;101580.56;;;19.64;68.28
64388;BME280;50709;52.648;4.764;2022-08-21T03:25:31;101568.59;;;19.86;67.51
64388;BME280;50709;52.648;4.764;2022-08-21T03:27:58;101592.16;;;19.98;67.27
64388;BME280;50709;52.648;4.764;2022-08-21T03:30:23;101549.31;;;19.79;66.94
64388;BME280;50709;52.648;4.764;2022-08-21T03:32:49;101579.59;;;20.05;67.42
64388;BME280;50709;52.648;4.764;2022-08-21T03:35:15;101575.09;;;20.08;67.18
64388;BME280;50709;52.648;4.764;2022-08-21T03:37:41;101577.22;;;19.94;66.91
64388;BME280;50709;52.648;4.764;2022-08-21T03:40:08;101594.47;;;20.10;66.87
64388;BME280;50709;52.648;4.764;2022-08-21T03:42:34;101536.63;;;19.92;66.86
64388;BME280;50709;52.648;4.764;2022-08-21T03:45:00;101576.34;;;19.95;66.40
64388;BME280;50709;52.648;4.764;2022-08-21T03:47:25;101560.91;;;20.09;66.84
64388;BME280;50709;52.648;4.764;2022-08-21T03:49:51;101577.72;;;20.43;66.32
64388;BME280;50709;52.648;4.764;2022-08-21T03:52:17;101565.78;;;20.26;66.36
64388;BME280;50709;52.648;4.764;2022-08-21T03:54:44;101577.06;;;20.34;66.19
64388;BME280;50709;52.648;4.764;2022-08-21T03:57:10;101530.97;;;20.06;65.73
64388;BME280;50709;52.648;4.764;2022-08-21T03:59:36;101546.84;;;20.07;65.50
64388;BME280;50709;52.648;4.764;2022-08-21T04:02:04;101553.06;;;20.06;66.04
64388;BME280;50709;52.648;4.764;2022-08-21T04:04:29;101575.16;;;20.05;65.93
64388;BME280;50709;52.648;4.764;2022-08-21T04:06:56;101571.34;;;20.17;66.35
64388;BME280;50709;52.648;4.764;2022-08-21T04:09:21;101560.84;;;20.12;65.60
64388;BME280;50709;52.648;4.764;2022-08-21T04:11:47;101586.81;;;20.32;65.92
64388;BME280;50709;52.648;4.764;2022-08-21T04:14:13;101591.59;;;20.20;65.82
64388;BME280;50709;52.648;4.764;2022-08-21T04:16:39;101562.19;;;20.29;65.56
64388;BME280;50709;52.648;4.764;2022-08-21T04:19:06;101556.25;;;20.19;65.95
64388;BME280;50709;52.648;4.764;2022-08-21T04:21:32;101571.91;;;20.28;65.49
64388;BME280;50709;52.648;4.764;2022-08-21T04:23:58;101574.50;;;20.31;65.60
64388;BME280;50709;52.648;4.764;2022-08-21T04:26:24;101570.94;;;20.31;65.57
64388;BME280;50709;52.648;4.764;2022-08-21T04:28:50;101572.84;;;20.27;65.40
64388;BME280;50709;52.648;4.764;2022-08-21T04:31:16;101578.09;;;20.29;65.66
64388;BME280;50709;52.648;4.764;2022-08-21T04:33:41;101541.38;;;20.13;65.90
64388;BME280;50709;52.648;4.764;2022-08-21T04:36:07;101604.91;;;20.51;65.86
64388;BME280;50709;52.648;4.764;2022-08-21T04:38:33;101586.19;;;20.23;65.64
64388;BME280;50709;52.648;4.764;2022-08-21T04:40:59;101583.06;;;20.07;65.93
64388;BME280;50709;52.648;4.764;2022-08-21T04:43:24;101602.31;;;20.15;66.48
64388;BME280;50709;52.648;4.764;2022-08-21T04:45:51;101541.94;;;19.92;65.10
64388;BME280;50709;52.648;4.764;2022-08-21T04:48:19;101600.38;;;20.22;65.97
64388;BME280;50709;52.648;4.764;2022-08-21T04:55:45;101576.69;;;20.15;66.15
64388;BME280;50709;52.648;4.764;2022-08-21T04:58:15;101613.25;;;20.37;65.59
64388;BME280;50709;52.648;4.764;2022-08-21T05:00:43;101599.84;;;20.42;65.54
64388;BME280;50709;52.648;4.764;2022-08-21T05:03:10;101608.59;;;20.12;65.75
64388;BME280;50709;52.648;4.764;2022-08-21T05:05:36;101600.03;;;20.36;65.83
64388;BME280;50709;52.648;4.764;2022-08-21T05:08:03;101603.72;;;20.30;65.59
64388;BME280;50709;52.648;4.764;2022-08-21T05:10:29;101605.09;;;20.43;65.70
64388;BME280;50709;52.648;4.764;2022-08-21T05:12:56;101608.59;;;20.45;65.69
64388;BME280;50709;52.648;4.764;2022-08-21T05:15:21;101571.28;;;20.19;65.43
64388;BME280;50709;52.648;4.764;2022-08-21T05:17:47;101602.72;;;20.32;65.88
64388;BME280;50709;52.648;4.764;2022-08-21T05:20:13;101604.34;;;20.40;65.32
64388;BME280;50709;52.648;4.764;2022-08-21T05:22:38;101609.72;;;20.37;65.95
64388;BME280;50709;52.648;4.764;2022-08-21T05:25:05;101602.53;;;20.40;65.52
64388;BME280;50709;52.648;4.764;2022-08-21T05:27:31;101571.00;;;20.29;65.70
64388;BME280;50709;52.648;4.764;2022-08-21T05:29:57;101607.50;;;20.53;64.61
64388;BME280;50709;52.648;4.764;2022-08-21T05:32:22;101559.16;;;20.10;64.64
64388;BME280;50709;52.648;4.764;2022-08-21T05:34:48;101612.59;;;20.60;65.53
64388;BME280;50709;52.648;4.764;2022-08-21T05:37:13;101612.50;;;20.65;65.38
64388;BME280;50709;52.648;4.764;2022-08-21T05:39:39;101601.28;;;20.54;65.15
64388;BME280;50709;52.648;4.764;2022-08-21T05:42:05;101623.13;;;20.65;64.95
64388;BME280;50709;52.648;4.764;2022-08-21T05:44:31;101617.41;;;20.80;64.78
64388;BME280;50709;52.648;4.764;2022-08-21T05:47:06;101623.56;;;20.81;65.15
64388;BME280;50709;52.648;4.764;2022-08-21T05:49:32;101630.78;;;20.77;65.30
64388;BME280;50709;52.648;4.764;2022-08-21T05:51:58;101609.63;;;20.40;64.69
64388;BME280;50709;52.648;4.764;2022-08-21T05:54:23;101578.47;;;20.48;65.18
64388;BME280;50709;52.648;4.764;2022-08-21T05:56:49;101620.97;;;20.79;65.59
64388;BME280;50709;52.648;4.764;2022-08-21T05:59:14;101614.31;;;20.63;65.04
64388;BME280;50709;52.648;4.764;2022-08-21T06:01:39;101607.41;;;20.57;65.04
64388;BME280;50709;52.648;4.764;2022-08-21T06:04:05;101616.56;;;20.78;65.51
64388;BME280;50709;52.648;4.764;2022-08-21T06:06:31;101605.56;;;20.92;65.21
64388;BME280;50709;52.648;4.764;2022-08-21T06:08:56;101574.47;;;20.96;64.67
64388;BME280;50709;52.648;4.764;2022-08-21T06:11:21;101576.66;;;20.81;65.13
64388;BME280;50709;52.648;4.764;2022-08-21T06:13:47;101617.13;;;20.90;65.13
64388;BME280;50709;52.648;4.764;2022-08-21T06:16:14;101594.84;;;20.95;65.20
64388;BME280;50709;52.648;4.764;2022-08-21T06:18:40;101601.69;;;21.03;65.31
64388;BME280;50709;52.648;4.764;2022-08-21T06:21:06;101564.13;;;20.87;65.37
64388;BME280;50709;52.648;4.764;2022-08-21T06:23:32;101579.66;;;21.00;64.96
64388;BME280;50709;52.648;4.764;2022-08-21T06:25:57;101606.78;;;21.40;64.77
64388;BME280;50709;52.648;4.764;2022-08-21T06:28:23;101597.06;;;21.69;64.39
64388;BME280;50709;52.648;4.764;2022-08-21T06:30:49;101593.75;;;21.89;63.10
64388;BME280;50709;52.648;4.764;2022-08-21T06:33:14;101598.16;;;22.42;61.95
64388;BME280;50709;52.648;4.764;2022-08-21T06:35:39;101603.00;;;22.80;60.71
64388;BME280;50709;52.648;4.764;2022-08-21T06:38:05;101589.28;;;22.91;61.75
64388;BME280;50709;52.648;4.764;2022-08-21T06:40:30;101568.69;;;22.47;62.38
64388;BME280;50709;52.648;4.764;2022-08-21T06:42:58;101559.50;;;22.05;63.20
64388;BME280;50709;52.648;4.764;2022-08-21T06:45:23;101606.56;;;22.03;64.75
64388;BME280;50709;52.648;4.764;2022-08-21T06:47:49;101557.06;;;21.99;64.60
64388;BME280;50709;52.648;4.764;2022-08-21T06:50:14;101592.84;;;22.15;64.37
64388;BME280;50709;52.648;4.764;2022-08-21T06:52:39;101609.34;;;22.25;64.31
64388;BME280;50709;52.648;4.764;2022-08-21T06:55:08;101560.63;;;21.98;64.73
64388;BME280;50709;52.648;4.764;2022-08-21T06:57:34;101602.66;;;22.13;65.10
64388;BME280;50709;52.648;4.764;2022-08-21T06:59:59;101611.16;;;21.71;66.08
64388;BME280;50709;52.648;4.764;2022-08-21T07:02:25;101591.88;;;21.91;65.71
64388;BME280;50709;52.648;4.764;2022-08-21T07:04:50;101614.13;;;22.15;65.61
64388;BME280;50709;52.648;4.764;2022-08-21T07:07:16;101608.25;;;22.31;64.86
64388;BME280;50709;52.648;4.764;2022-08-21T07:09:41;101601.78;;;22.65;64.40
64388;BME280;50709;52.648;4.764;2022-08-21T07:12:06;101619.91;;;22.79;64.09
64388;BME280;50709;52.648;4.764;2022-08-21T07:14:32;101623.16;;;22.62;64.47
64388;BME280;50709;52.648;4.764;2022-08-21T07:16:57;101601.94;;;22.60;64.71
64388;BME280;50709;52.648;4.764;2022-08-21T07:19:23;101618.03;;;22.30;65.35
64388;BME280;50709;52.648;4.764;2022-08-21T07:21:48;101627.88;;;22.28;65.48
64388;BME280;50709;52.648;4.764;2022-08-21T07:24:14;101618.03;;;22.30;65.65
64388;BME280;50709;52.648;4.764;2022-08-21T07:26:39;101630.50;;;22.55;65.19
64388;BME280;50709;52.648;4.764;2022-08-21T07:29:05;101618.72;;;22.62;64.45
64388;BME280;50709;52.648;4.764;2022-08-21T07:31:31;101620.75;;;22.56;64.55
64388;BME280;50709;52.648;4.764;2022-08-21T07:33:56;101614.50;;;22.57;64.33
64388;BME280;50709;52.648;4.764;2022-08-21T07:36:22;101629.78;;;22.75;64.28
64388;BME280;50709;52.648;4.764;2022-08-21T07:38:47;101577.56;;;22.71;63.88
64388;BME280;50709;52.648;4.764;2022-08-21T07:41:16;101619.50;;;22.90;63.40
64388;BME280;50709;52.648;4.764;2022-08-21T07:43:43;101626.44;;;23.19;62.80
64388;BME280;50709;52.648;4.764;2022-08-21T07:46:08;101603.66;;;23.34;61.29
64388;BME280;50709;52.648;4.764;2022-08-21T07:48:34;101606.88;;;23.42;60.86
64388;BME280;50709;52.648;4.764;2022-08-21T07:51:02;101577.81;;;23.58;60.30
64388;BME280;50709;52.648;4.764;2022-08-21T07:53:30;101626.47;;;23.85;59.59
64388;BME280;50709;52.648;4.764;2022-08-21T07:55:58;101606.25;;;24.02;58.69
64388;BME280;50709;52.648;4.764;2022-08-21T07:58:24;101595.19;;;24.11;57.31
64388;BME280;50709;52.648;4.764;2022-08-21T08:00:50;101603.59;;;24.43;56.05
64388;BME280;50709;52.648;4.764;2022-08-21T08:03:15;101615.72;;;24.50;54.16
64388;BME280;50709;52.648;4.764;2022-08-21T08:05:40;101562.44;;;24.68;54.10
64388;BME280;50709;52.648;4.764;2022-08-21T08:08:06;101602.59;;;24.66;54.13
64388;BME280;50709;52.648;4.764;2022-08-21T08:10:31;101610.25;;;24.74;53.23
64388;BME280;50709;52.648;4.764;2022-08-21T08:12:57;101613.88;;;24.52;53.42
64388;BME280;50709;52.648;4.764;2022-08-21T08:15:23;101611.16;;;23.91;56.76
64388;BME280;50709;52.648;4.764;2022-08-21T08:17:49;101610.38;;;23.87;58.30
64388;BME280;50709;52.648;4.764;2022-08-21T08:20:14;101617.78;;;23.80;59.17
64388;BME280;50709;52.648;4.764;2022-08-21T08:22:40;101616.16;;;23.76;58.67
64388;BME280;50709;52.648;4.764;2022-08-21T08:25:06;101617.78;;;23.58;58.50
64388;BME280;50709;52.648;4.764;2022-08-21T08:27:33;101615.09;;;23.80;58.29
64388;BME280;50709;52.648;4.764;2022-08-21T08:29:58;101608.94;;;24.23;58.23
64388;BME280;50709;52.648;4.764;2022-08-21T08:32:23;101612.19;;;24.50;56.04
64388;BME280;50709;52.648;4.764;2022-08-21T08:34:49;101608.38;;;24.56;55.11
64388;BME280;50709;52.648;4.764;2022-08-21T08:37:16;101609.50;;;24.29;55.17
64388;BME280;50709;52.648;4.764;2022-08-21T08:39:41;101613.06;;;24.71;56.66
64388;BME280;50709;52.648;4.764;2022-08-21T08:42:28;101613.53;;;25.00;57.29
64388;BME280;50709;52.648;4.764;2022-08-21T08:47:36;101596.56;;;25.20;57.10
64388;BME280;50709;52.648;4.764;2022-08-21T08:50:21;101586.59;;;25.05;53.48
64388;BME280;50709;52.648;4.764;2022-08-21T08:52:52;101600.03;;;25.22;53.36
64388;BME280;50709;52.648;4.764;2022-08-21T08:55:37;101614.56;;;25.35;53.81
64388;BME280;50709;52.648;4.764;2022-08-21T08:58:04;101595.56;;;25.42;56.49
64388;BME280;50709;52.648;4.764;2022-08-21T09:00:30;101614.88;;;25.28;51.44
64388;BME280;50709;52.648;4.764;2022-08-21T09:02:57;101565.44;;;25.19;53.79
64388;BME280;50709;52.648;4.764;2022-08-21T09:05:33;101595.94;;;25.34;51.16
64388;BME280;50709;52.648;4.764;2022-08-21T09:08:23;101610.13;;;25.53;54.73
64388;BME280;50709;52.648;4.764;2022-08-21T09:10:57;101613.56;;;25.38;54.23
64388;BME280;50709;52.648;4.764;2022-08-21T09:16:23;101615.94;;;25.44;53.84
64388;BME280;50709;52.648;4.764;2022-08-21T09:19:37;101624.31;;;25.17;54.05
64388;BME280;50709;52.648;4.764;2022-08-21T09:27:13;101620.63;;;25.01;54.20
64388;BME280;50709;52.648;4.764;2022-08-21T09:29:41;101626.59;;;25.25;53.33
64388;BME280;50709;52.648;4.764;2022-08-21T09:32:11;101624.81;;;25.45;53.03
64388;BME280;50709;52.648;4.764;2022-08-21T09:34:38;101626.06;;;25.38;51.96
64388;BME280;50709;52.648;4.764;2022-08-21T09:37:03;101622.16;;;25.45;52.66
64388;BME280;50709;52.648;4.764;2022-08-21T09:39:30;101624.66;;;25.29;52.82
64388;BME280;50709;52.648;4.764;2022-08-21T09:41:57;101619.63;;;25.42;52.26
64388;BME280;50709;52.648;4.764;2022-08-21T09:44:26;101623.16;;;25.42;51.39
64388;BME280;50709;52.648;4.764;2022-08-21T09:46:53;101618.38;;;25.49;51.92
64388;BME280;50709;52.648;4.764;2022-08-21T09:49:28;101624.47;;;25.52;52.28
64388;BME280;50709;52.648;4.764;2022-08-21T09:51:54;101630.31;;;25.42;50.37
64388;BME280;50709;52.648;4.764;2022-08-21T09:54:19;101625.81;;;25.61;51.61
64388;BME280;50709;52.648;4.764;2022-08-21T10:00:18;101626.16;;;25.53;51.46
64388;BME280;50709;52.648;4.764;2022-08-21T10:02:44;101635.28;;;25.49;49.87
64388;BME280;50709;52.648;4.764;2022-08-21T10:05:23;101635.31;;;25.86;51.37
64388;BME280;50709;52.648;4.764;2022-08-21T10:07:49;101640.66;;;25.86;51.25
64388;BME280;50709;52.648;4.764;2022-08-21T10:10:22;101633.19;;;25.93;49.89
64388;BME280;50709;52.648;4.764;2022-08-21T10:12:49;101632.53;;;26.07;50.84
64388;BME280;50709;52.648;4.764;2022-08-21T10:15:29;101637.38;;;25.98;50.97
64388;BME280;50709;52.648;4.764;2022-08-21T10:20:44;101638.13;;;25.83;51.75
64388;BME280;50709;52.648;4.764;2022-08-21T10:25:45;101639.31;;;25.95;50.88
64388;BME280;50709;52.648;4.764;2022-08-21T10:28:18;101637.59;;;25.57;48.62
64388;BME280;50709;52.648;4.764;2022-08-21T10:30:58;101643.41;;;26.02;51.53
64388;BME280;50709;52.648;4.764;2022-08-21T10:33:28;101645.22;;;26.01;51.08
64388;BME280;50709;52.648;4.764;2022-08-21T10:36:02;101640.81;;;26.00;51.06
64388;BME280;50709;52.648;4.764;2022-08-21T10:57:04;101637.59;;;25.94;49.12
64388;BME280;50709;52.648;4.764;2022-08-21T10:59:42;101636.22;;;26.22;50.94
64388;BME280;50709;52.648;4.764;2022-08-21T11:02:17;101638.44;;;26.31;50.86
64388;BME280;50709;52.648;4.764;2022-08-21T11:05:01;101640.47;;;26.26;46.30
64388;BME280;50709;52.648;4.764;2022-08-21T11:07:32;101629.75;;;26.94;48.37
64388;BME280;50709;52.648;4.764;2022-08-21T11:10:10;101592.13;;;26.62;44.57
64388;BME280;50709;52.648;4.764;2022-08-21T11:12:47;101635.53;;;26.69;44.31
64388;BME280;50709;52.648;4.764;2022-08-21T11:18:28;101625.56;;;27.06;43.77
64388;BME280;50709;52.648;4.764;2022-08-21T11:21:38;101637.94;;;26.91;44.50
64388;BME280;50709;52.648;4.764;2022-08-21T11:24:24;101649.38;;;26.95;44.46
64388;BME280;50709;52.648;4.764;2022-08-21T11:29:58;101645.00;;;27.26;43.24
64388;BME280;50709;52.648;4.764;2022-08-21T11:43:42;101648.59;;;27.58;43.83
64388;BME280;50709;52.648;4.764;2022-08-21T11:46:17;101641.28;;;27.76;43.41
64388;BME280;50709;52.648;4.764;2022-08-21T11:51:22;101647.56;;;27.61;44.56
64388;BME280;50709;52.648;4.764;2022-08-21T11:54:09;101656.81;;;27.55;43.55
64388;BME280;50709;52.648;4.764;2022-08-21T11:56:45;101601.19;;;27.43;42.10
64388;BME280;50709;52.648;4.764;2022-08-21T11:59:47;101630.25;;;27.50;43.26
64388;BME280;50709;52.648;4.764;2022-08-21T12:02:14;101653.16;;;27.72;40.95
64388;BME280;50709;52.648;4.764;2022-08-21T12:04:47;101602.63;;;27.32;43.72
64388;BME280;50709;52.648;4.764;2022-08-21T12:07:27;101654.13;;;27.71;42.56
64388;BME280;50709;52.648;4.764;2022-08-21T12:09:55;101647.00;;;28.02;44.03
64388;BME280;50709;52.648;4.764;2022-08-21T12:12:32;101658.91;;;28.12;41.55
64388;BME280;50709;52.648;4.764;2022-08-21T12:15:15;101671.78;;;27.75;40.19
64388;BME280;50709;52.648;4.764;2022-08-21T12:22:54;101652.63;;;27.65;42.79
64388;BME280;50709;52.648;4.764;2022-08-21T12:25:21;101673.94;;;27.68;39.09
64388;BME280;50709;52.648;4.764;2022-08-21T12:27:51;101667.75;;;27.98;41.79
64388;BME280;50709;52.648;4.764;2022-08-21T12:30:34;101653.72;;;27.93;38.10
64388;BME280;50709;52.648;4.764;2022-08-21T12:33:20;101662.69;;;28.24;42.08
64388;BME280;50709;52.648;4.764;2022-08-21T12:35:47;101658.25;;;27.93;36.13
64388;BME280;50709;52.648;4.764;2022-08-21T12:38:26;101681.53;;;28.08;40.55
64388;BME280;50709;52.648;4.764;2022-08-21T12:41:06;101661.50;;;27.98;36.98
64388;BME280;50709;52.648;4.764;2022-08-21T12:43:38;101655.38;;;27.96;42.01
64388;BME280;50709;52.648;4.764;2022-08-21T12:46:06;101668.78;;;27.96;36.69
64388;BME280;50709;52.648;4.764;2022-08-21T12:48:52;101664.97;;;28.16;39.68
64388;BME280;50709;52.648;4.764;2022-08-21T12:51:49;101663.19;;;28.00;38.01
64388;BME280;50709;52.648;4.764;2022-08-21T12:54:26;101668.69;;;28.13;43.13
64388;BME280;50709;52.648;4.764;2022-08-21T12:57:04;101666.66;;;27.86;38.51
64388;BME280;50709;52.648;4.764;2022-08-21T12:59:30;101652.63;;;27.81;37.49
64388;BME280;50709;52.648;4.764;2022-08-21T13:01:58;101668.50;;;28.02;40.43
64388;BME280;50709;52.648;4.764;2022-08-21T13:04:35;101677.16;;;28.22;40.56
64388;BME280;50709;52.648;4.764;2022-08-21T13:07:09;101656.41;;;28.09;42.73
64388;BME280;50709;52.648;4.764;2022-08-21T13:09:44;101665.25;;;27.95;39.91
64388;BME280;50709;52.648;4.764;2022-08-21T13:12:11;101662.25;;;28.32;42.67
64388;BME280;50709;52.648;4.764;2022-08-21T13:14:40;101647.56;;;28.38;39.76
64388;BME280;50709;52.648;4.764;2022-08-21T13:17:07;101668.50;;;28.02;39.01
64388;BME280;50709;52.648;4.764;2022-08-21T13:19:33;101648.81;;;27.85;43.43
64388;BME280;50709;52.648;4.764;2022-08-21T13:21:59;101654.28;;;27.84;38.63
64388;BME280;50709;52.648;4.764;2022-08-21T13:26:52;101631.56;;;27.90;41.35
64388;BME280;50709;52.648;4.764;2022-08-21T13:29:20;101616.66;;;28.00;44.46
64388;BME280;50709;52.648;4.764;2022-08-21T13:31:57;101665.16;;;27.97;40.19
64388;BME280;50709;52.648;4.764;2022-08-21T13:34:33;101662.72;;;28.08;42.94
64388;BME280;50709;52.648;4.764;2022-08-21T13:37:03;101664.59;;;28.22;41.52
64388;BME280;50709;52.648;4.764;2022-08-21T13:39:29;101661.19;;;27.88;37.95
64388;BME280;50709;52.648;4.764;2022-08-21T13:41:58;101667.75;;;28.14;42.47
64388;BME280;50709;52.648;4.764;2022-08-21T13:44:34;101677.41;;;28.02;39.00
64388;BME280;50709;52.648;4.764;2022-08-21T13:47:02;101670.78;;;28.08;44.76
64388;BME280;50709;52.648;4.764;2022-08-21T13:49:34;101650.03;;;27.80;44.35
64388;BME280;50709;52.648;4.764;2022-08-21T13:52:01;101674.72;;;28.02;43.95
64388;BME280;50709;52.648;4.764;2022-08-21T13:54:33;101686.47;;;27.84;40.06
64388;BME280;50709;52.648;4.764;2022-08-21T13:56:59;101630.66;;;27.75;39.21
64388;BME280;50709;52.648;4.764;2022-08-21T13:59:27;101678.41;;;28.00;43.57
64388;BME280;50709;52.648;4.764;2022-08-21T14:01:55;101672.72;;;27.42;40.43
64388;BME280;50709;52.648;4.764;2022-08-21T14:04:50;101673.00;;;27.38;38.83
64388;BME280;50709;52.648;4.764;2022-08-21T14:07:19;101638.06;;;27.06;41.24